createdAt,value
2022-09-09T00:00:14.875Z,100
2022-09-09T00:00:34.933Z,100
2022-09-09T00:00:55.008Z,100
2022-09-09T00:01:15.063Z,100
2022-09-09T00:01:35.143Z,100
2022-09-09T00:01:55.179Z,100
2022-09-09T00:02:15.382Z,100
2022-09-09T00:02:35.463Z,100
2022-09-09T00:02:55.567Z,100
2022-09-09T00:03:15.595Z,100
2022-09-09T00:03:35.644Z,100
2022-09-09T00:03:55.600Z,100
2022-09-09T00:04:15.651Z,100
2022-09-09T00:04:35.711Z,100
2022-09-09T00:04:55.763Z,100
2022-09-09T00:05:15.859Z,100
2022-09-09T00:05:35.925Z,100
2022-09-09T00:05:55.999Z,100
2022-09-09T00:06:16.059Z,100
2022-09-09T00:06:36.129Z,100
2022-09-09T00:06:56.174Z,100
2022-09-09T00:07:16.246Z,100
2022-09-09T00:07:36.298Z,100
2022-09-09T00:07:56.376Z,100
2022-09-09T00:08:16.437Z,100
2022-09-09T00:08:36.499Z,100
2022-09-09T00:08:56.567Z,100
2022-09-09T00:09:16.632Z,100
2022-09-09T00:09:36.702Z,100
2022-09-09T00:09:56.726Z,100
2022-09-09T00:10:16.761Z,100
2022-09-09T00:10:36.806Z,100
2022-09-09T00:10:56.858Z,100
2022-09-09T00:11:16.887Z,100
2022-09-09T00:11:36.927Z,100
2022-09-09T00:11:56.980Z,100
2022-09-09T00:12:17.032Z,100
2022-09-09T00:12:37.103Z,100
2022-09-09T00:12:57.176Z,100
2022-09-09T00:13:17.251Z,100
2022-09-09T00:13:37.307Z,100
2022-09-09T00:13:57.371Z,100
2022-09-09T00:14:17.437Z,100
2022-09-09T00:14:37.469Z,100
2022-09-09T00:14:57.546Z,100
2022-09-09T00:15:17.611Z,100
2022-09-09T00:15:37.710Z,100
2022-09-09T00:15:57.861Z,100
2022-09-09T00:16:17.905Z,100
2022-09-09T00:16:37.903Z,100
2022-09-09T00:16:57.973Z,100
2022-09-09T00:17:18.068Z,100
2022-09-09T00:17:38.143Z,100
2022-09-09T00:17:58.225Z,100
2022-09-09T00:18:18.253Z,100
2022-09-09T00:18:38.333Z,100
2022-09-09T00:18:58.380Z,100
2022-09-09T00:19:18.434Z,100
2022-09-09T00:19:38.505Z,100
2022-09-09T00:19:58.550Z,100
2022-09-09T00:20:18.642Z,100
2022-09-09T00:20:38.693Z,100
2022-09-09T00:20:58.768Z,100
2022-09-09T00:21:18.855Z,100
2022-09-09T00:21:38.914Z,100
2022-09-09T00:21:58.968Z,100
2022-09-09T00:22:19.047Z,100
2022-09-09T00:22:39.088Z,100
2022-09-09T00:22:59.161Z,100
2022-09-09T00:23:19.234Z,100
2022-09-09T00:23:39.292Z,100
2022-09-09T00:23:59.391Z,100
2022-09-09T00:24:19.477Z,100
2022-09-09T00:24:39.497Z,100
2022-09-09T00:24:59.575Z,100
2022-09-09T00:25:19.708Z,100
2022-09-09T00:25:39.690Z,100
2022-09-09T00:25:59.765Z,100
2022-09-09T00:26:19.848Z,100
2022-09-09T00:26:39.891Z,100
2022-09-09T00:26:59.953Z,100
2022-09-09T00:27:19.995Z,100
2022-09-09T00:27:40.060Z,100
2022-09-09T00:28:00.143Z,100
2022-09-09T00:28:20.218Z,100
2022-09-09T00:28:40.282Z,100
2022-09-09T00:29:00.334Z,100
2022-09-09T00:29:20.417Z,100
2022-09-09T00:29:40.470Z,100
2022-09-09T00:30:00.539Z,100
2022-09-09T00:30:20.620Z,100
2022-09-09T00:30:40.744Z,100
2022-09-09T00:31:00.738Z,100
2022-09-09T00:31:20.862Z,100
2022-09-09T00:31:40.844Z,100
2022-09-09T00:32:00.891Z,100
2022-09-09T00:32:20.941Z,100
2022-09-09T00:32:41.040Z,100
2022-09-09T00:33:01.040Z,100
2022-09-09T00:33:21.091Z,100
2022-09-09T00:33:41.168Z,100
2022-09-09T00:34:01.236Z,100
2022-09-09T00:34:21.291Z,100
2022-09-09T00:34:41.368Z,100
2022-09-09T00:35:01.424Z,100
2022-09-09T00:35:21.482Z,100
2022-09-09T00:35:41.515Z,100
2022-09-09T00:36:01.566Z,100
2022-09-09T00:36:21.607Z,100
2022-09-09T00:36:41.649Z,100
2022-09-09T00:37:01.727Z,100
2022-09-09T00:37:21.783Z,100
2022-09-09T00:37:41.836Z,100
2022-09-09T00:38:01.924Z,100
2022-09-09T00:38:21.964Z,100
2022-09-09T00:38:42.065Z,100
2022-09-09T00:39:02.110Z,100
2022-09-09T00:39:22.192Z,100
2022-09-09T00:39:42.296Z,100
2022-09-09T00:40:02.375Z,100
2022-09-09T00:40:22.360Z,100
2022-09-09T00:40:42.452Z,100
2022-09-09T00:41:02.526Z,100
2022-09-09T00:41:22.600Z,100
2022-09-09T00:41:42.649Z,100
2022-09-09T00:42:02.704Z,100
2022-09-09T00:42:22.757Z,100
2022-09-09T00:42:42.845Z,100
2022-09-09T00:43:02.918Z,100
2022-09-09T00:43:22.994Z,100
2022-09-09T00:43:43.085Z,100
2022-09-09T00:44:03.122Z,100
2022-09-09T00:44:23.183Z,100
2022-09-09T00:44:43.247Z,100
2022-09-09T00:45:03.325Z,100
2022-09-09T00:45:23.410Z,100
2022-09-09T00:45:43.557Z,100
2022-09-09T00:46:03.653Z,100
2022-09-09T00:46:23.672Z,100
2022-09-09T00:46:43.712Z,100
2022-09-09T00:47:03.770Z,100
2022-09-09T00:47:23.825Z,100
2022-09-09T00:47:43.912Z,100
2022-09-09T00:48:03.970Z,100
2022-09-09T00:48:24.028Z,100
2022-09-09T00:48:44.120Z,100
2022-09-09T00:49:04.187Z,100
2022-09-09T00:49:24.263Z,100
2022-09-09T00:49:44.332Z,100
2022-09-09T00:50:04.368Z,100
2022-09-09T00:50:24.425Z,100
2022-09-09T00:50:44.498Z,100
2022-09-09T00:51:04.557Z,100
2022-09-09T00:51:24.625Z,100
2022-09-09T00:51:44.691Z,100
2022-09-09T00:52:04.754Z,100
2022-09-09T00:52:24.818Z,100
2022-09-09T00:52:44.866Z,100
2022-09-09T00:53:04.943Z,100
2022-09-09T00:53:25.019Z,100
2022-09-09T00:53:45.105Z,100
2022-09-09T00:54:05.142Z,100
2022-09-09T00:54:25.212Z,100
2022-09-09T00:54:45.278Z,100
2022-09-09T00:55:05.354Z,100
2022-09-09T00:55:25.384Z,100
2022-09-09T00:55:45.452Z,100
2022-09-09T00:56:05.532Z,100
2022-09-09T00:56:25.579Z,100
2022-09-09T00:56:45.613Z,100
2022-09-09T00:57:05.684Z,100
2022-09-09T00:57:25.740Z,100
2022-09-09T00:57:45.794Z,100
2022-09-09T00:58:05.857Z,100
2022-09-09T00:58:25.901Z,100
2022-09-09T00:58:45.983Z,100
2022-09-09T00:59:06.049Z,100
2022-09-09T00:59:28.488Z,100
2022-09-09T00:59:46.191Z,100
2022-09-09T01:00:06.256Z,100
2022-09-09T01:00:26.290Z,100
2022-09-09T01:00:46.359Z,100
2022-09-09T01:01:06.466Z,100
2022-09-09T01:01:26.566Z,100
2022-09-09T01:01:46.664Z,100
2022-09-09T01:02:06.657Z,100
2022-09-09T01:02:26.746Z,100
2022-09-09T01:02:46.797Z,100
2022-09-09T01:03:06.801Z,99.94
2022-09-09T01:03:26.842Z,99.84
2022-09-09T01:03:46.928Z,99.81
2022-09-09T01:04:06.986Z,99.73
2022-09-09T01:04:27.071Z,99.66
2022-09-09T01:04:47.128Z,99.58
2022-09-09T01:05:07.212Z,99.52
2022-09-09T01:05:27.235Z,99.46
2022-09-09T01:05:47.291Z,99.36
2022-09-09T01:06:07.384Z,99.34
2022-09-09T01:06:27.432Z,99.29
2022-09-09T01:06:47.495Z,99.22
2022-09-09T01:07:07.538Z,99.13
2022-09-09T01:07:27.614Z,99.1
2022-09-09T01:07:47.678Z,99.01
2022-09-09T01:08:07.746Z,98.95
2022-09-09T01:08:27.790Z,98.88
2022-09-09T01:08:47.863Z,98.81
2022-09-09T01:09:07.928Z,98.84
2022-09-09T01:09:28.013Z,98.81
2022-09-09T01:09:48.068Z,98.74
2022-09-09T01:10:08.154Z,98.71
2022-09-09T01:10:28.226Z,98.7
2022-09-09T01:10:48.268Z,98.69
2022-09-09T01:11:08.341Z,98.68
2022-09-09T01:11:28.373Z,98.65
2022-09-09T01:11:48.420Z,98.59
2022-09-09T01:12:08.487Z,98.52
2022-09-09T01:12:28.503Z,98.5
2022-09-09T01:12:48.537Z,98.48
2022-09-09T01:13:08.581Z,98.48
2022-09-09T01:13:28.684Z,98.4
2022-09-09T01:13:48.714Z,98.38
2022-09-09T01:14:08.788Z,98.38
2022-09-09T01:14:28.852Z,98.35
2022-09-09T01:14:48.923Z,98.32
2022-09-09T01:15:08.959Z,98.29
2022-09-09T01:15:29.022Z,98.24
2022-09-09T01:15:49.123Z,98.16
2022-09-09T01:16:09.189Z,98.21
2022-09-09T01:16:29.318Z,98.19
2022-09-09T01:16:49.397Z,98.16
2022-09-09T01:17:09.407Z,98.23
2022-09-09T01:17:29.449Z,98.21
2022-09-09T01:17:49.528Z,98.23
2022-09-09T01:18:09.576Z,98.17
2022-09-09T01:18:29.751Z,98.13
2022-09-09T01:18:49.747Z,98.13
2022-09-09T01:19:09.806Z,98.08
2022-09-09T01:19:29.886Z,98.09
2022-09-09T01:19:49.964Z,98.13
2022-09-09T01:20:10.029Z,98.1
2022-09-09T01:20:30.094Z,98.1
2022-09-09T01:20:50.154Z,98.13
2022-09-09T01:21:10.226Z,98.07
2022-09-09T01:21:30.312Z,98.04
2022-09-09T01:21:50.375Z,97.98
2022-09-09T01:22:10.447Z,97.94
2022-09-09T01:22:30.468Z,97.93
2022-09-09T01:22:50.543Z,97.99
2022-09-09T01:23:10.610Z,97.95
2022-09-09T01:23:30.675Z,97.93
2022-09-09T01:23:50.765Z,97.9
2022-09-09T01:24:10.804Z,97.88
2022-09-09T01:24:30.855Z,97.88
2022-09-09T01:24:50.912Z,97.82
2022-09-09T01:25:10.967Z,97.78
2022-09-09T01:25:31.007Z,97.69
2022-09-09T01:25:51.082Z,97.73
2022-09-09T01:26:11.143Z,97.74
2022-09-09T01:26:31.166Z,97.73
2022-09-09T01:26:51.241Z,97.69
2022-09-09T01:27:11.320Z,97.7
2022-09-09T01:27:31.376Z,97.67
2022-09-09T01:27:51.453Z,97.68
2022-09-09T01:28:11.503Z,97.69
2022-09-09T01:28:31.693Z,97.68
2022-09-09T01:28:51.640Z,97.7
2022-09-09T01:29:11.716Z,97.71
2022-09-09T01:29:31.783Z,97.67
2022-09-09T01:29:51.849Z,97.71
2022-09-09T01:30:11.896Z,97.69
2022-09-09T01:30:32.000Z,97.63
2022-09-09T01:30:52.121Z,97.65
2022-09-09T01:31:12.210Z,97.68
2022-09-09T01:31:32.130Z,97.66
2022-09-09T01:31:52.218Z,97.67
2022-09-09T01:32:12.303Z,97.69
2022-09-09T01:32:32.357Z,97.67
2022-09-09T01:32:52.418Z,97.68
2022-09-09T01:33:12.483Z,97.67
2022-09-09T01:33:32.567Z,97.64
2022-09-09T01:33:52.605Z,97.67
2022-09-09T01:34:12.673Z,97.66
2022-09-09T01:34:32.762Z,97.71
2022-09-09T01:34:52.845Z,97.73
2022-09-09T01:35:12.901Z,97.78
2022-09-09T01:35:32.977Z,97.87
2022-09-09T01:35:53.034Z,97.88
2022-09-09T01:36:13.074Z,97.83
2022-09-09T01:36:33.139Z,97.85
2022-09-09T01:36:53.202Z,97.83
2022-09-09T01:37:13.244Z,97.83
2022-09-09T01:37:33.307Z,97.84
2022-09-09T01:37:53.398Z,97.83
2022-09-09T01:38:13.469Z,97.83
2022-09-09T01:38:33.612Z,97.8
2022-09-09T01:38:53.604Z,97.81
2022-09-09T01:39:13.682Z,97.81
2022-09-09T01:39:33.816Z,97.83
2022-09-09T01:39:53.854Z,97.86
2022-09-09T01:40:13.939Z,97.86
2022-09-09T01:40:33.909Z,97.86
2022-09-09T01:40:53.987Z,97.88
2022-09-09T01:41:14.020Z,97.9
2022-09-09T01:41:34.088Z,97.87
2022-09-09T01:41:54.172Z,97.95
2022-09-09T01:42:14.240Z,97.98
2022-09-09T01:42:34.299Z,98.01
2022-09-09T01:42:54.350Z,98.03
2022-09-09T01:43:14.421Z,98.05
2022-09-09T01:43:34.498Z,98.08
2022-09-09T01:43:54.541Z,98.01
2022-09-09T01:44:14.610Z,98
2022-09-09T01:44:34.668Z,98.03
2022-09-09T01:44:54.722Z,98.03
2022-09-09T01:45:14.792Z,98.02
2022-09-09T01:45:34.926Z,97.96
2022-09-09T01:45:55.014Z,97.99
2022-09-09T01:46:15.103Z,97.99
2022-09-09T01:46:35.058Z,97.99
2022-09-09T01:46:55.134Z,97.96
2022-09-09T01:47:15.189Z,97.96
2022-09-09T01:47:35.247Z,97.93
2022-09-09T01:47:55.286Z,97.89
2022-09-09T01:48:15.371Z,97.96
2022-09-09T01:48:35.564Z,97.9
2022-09-09T01:48:55.477Z,97.92
2022-09-09T01:49:15.531Z,97.85
2022-09-09T01:49:35.587Z,97.84
2022-09-09T01:49:55.632Z,97.83
2022-09-09T01:50:15.699Z,97.76
2022-09-09T01:50:35.758Z,97.73
2022-09-09T01:50:55.802Z,97.74
2022-09-09T01:51:15.883Z,97.76
2022-09-09T01:51:35.929Z,97.74
2022-09-09T01:51:56.010Z,97.72
2022-09-09T01:52:16.091Z,97.74
2022-09-09T01:52:36.142Z,97.75
2022-09-09T01:52:56.196Z,97.74
2022-09-09T01:53:16.241Z,97.73
2022-09-09T01:53:36.358Z,97.76
2022-09-09T01:53:56.398Z,97.74
2022-09-09T01:54:16.480Z,97.72
2022-09-09T01:54:36.558Z,97.72
2022-09-09T01:54:56.632Z,97.72
2022-09-09T01:55:16.651Z,97.7
2022-09-09T01:55:36.712Z,97.69
2022-09-09T01:55:56.760Z,97.67
2022-09-09T01:56:16.839Z,97.64
2022-09-09T01:56:36.878Z,97.64
2022-09-09T01:56:56.949Z,97.7
2022-09-09T01:57:16.988Z,97.67
2022-09-09T01:57:37.046Z,97.69
2022-09-09T01:57:57.114Z,97.67
2022-09-09T01:58:17.189Z,97.65
2022-09-09T01:58:37.447Z,97.67
2022-09-09T01:58:57.338Z,97.67
2022-09-09T01:59:17.410Z,97.66
2022-09-09T01:59:37.494Z,97.61
2022-09-09T01:59:57.558Z,97.67
2022-09-09T02:00:17.640Z,97.66
2022-09-09T02:00:37.709Z,97.67
2022-09-09T02:00:57.837Z,97.66
2022-09-09T02:01:17.935Z,97.64
2022-09-09T02:01:37.997Z,97.67
2022-09-09T02:01:58.011Z,97.67
2022-09-09T02:02:18.050Z,97.66
2022-09-09T02:02:38.113Z,97.67
2022-09-09T02:02:58.164Z,97.73
2022-09-09T02:03:18.227Z,97.74
2022-09-09T02:03:38.283Z,97.76
2022-09-09T02:03:58.350Z,97.73
2022-09-09T02:04:18.428Z,97.75
2022-09-09T02:04:38.484Z,97.68
2022-09-09T02:04:58.544Z,97.66
2022-09-09T02:05:18.616Z,97.63
2022-09-09T02:05:38.686Z,97.64
2022-09-09T02:05:58.723Z,97.6
2022-09-09T02:06:18.773Z,97.55
2022-09-09T02:06:38.847Z,97.54
2022-09-09T02:06:58.898Z,97.53
2022-09-09T02:07:18.949Z,97.49
2022-09-09T02:07:39.037Z,97.44
2022-09-09T02:07:59.084Z,97.43
2022-09-09T02:08:19.131Z,97.44
2022-09-09T02:08:39.201Z,97.43
2022-09-09T02:08:59.275Z,97.4
2022-09-09T02:09:19.350Z,97.45
2022-09-09T02:09:39.427Z,97.41
2022-09-09T02:09:59.478Z,97.39
2022-09-09T02:10:19.511Z,97.4
2022-09-09T02:10:39.588Z,97.39
2022-09-09T02:10:59.662Z,97.38
2022-09-09T02:11:19.701Z,97.38
2022-09-09T02:11:39.775Z,97.35
2022-09-09T02:11:59.824Z,97.35
2022-09-09T02:12:19.893Z,97.36
2022-09-09T02:12:39.942Z,97.34
2022-09-09T02:13:00.004Z,97.31
2022-09-09T02:13:20.055Z,97.35
2022-09-09T02:13:40.118Z,97.33
2022-09-09T02:14:00.207Z,97.37
2022-09-09T02:14:20.251Z,97.4
2022-09-09T02:14:40.331Z,97.41
2022-09-09T02:15:00.389Z,97.37
2022-09-09T02:15:20.553Z,97.35
2022-09-09T02:15:40.546Z,97.36
2022-09-09T02:16:00.618Z,97.35
2022-09-09T02:16:20.942Z,97.32
2022-09-09T02:16:40.875Z,97.31
2022-09-09T02:17:00.908Z,97.31
2022-09-09T02:17:20.935Z,97.33
2022-09-09T02:17:41.031Z,97.33
2022-09-09T02:18:01.110Z,97.34
2022-09-09T02:18:21.173Z,97.36
2022-09-09T02:18:41.216Z,97.37
2022-09-09T02:19:01.280Z,97.38
2022-09-09T02:19:21.353Z,97.41
2022-09-09T02:19:41.407Z,97.4
2022-09-09T02:20:01.479Z,97.43
2022-09-09T02:20:21.540Z,97.42
2022-09-09T02:20:41.606Z,97.44
2022-09-09T02:21:01.635Z,97.43
2022-09-09T02:21:21.706Z,97.47
2022-09-09T02:21:41.758Z,97.43
2022-09-09T02:22:01.812Z,97.44
2022-09-09T02:22:21.855Z,97.44
2022-09-09T02:22:41.926Z,97.45
2022-09-09T02:23:02.002Z,97.45
2022-09-09T02:23:22.177Z,97.53
2022-09-09T02:23:42.111Z,97.52
2022-09-09T02:24:02.198Z,97.5
2022-09-09T02:24:22.267Z,97.54
2022-09-09T02:24:42.346Z,97.52
2022-09-09T02:25:02.411Z,97.5
2022-09-09T02:25:22.457Z,97.54
2022-09-09T02:25:42.522Z,97.51
2022-09-09T02:26:02.588Z,97.53
2022-09-09T02:26:22.652Z,97.51
2022-09-09T02:26:42.734Z,97.48
2022-09-09T02:27:02.794Z,97.49
2022-09-09T02:27:22.852Z,97.48
2022-09-09T02:27:42.910Z,97.45
2022-09-09T02:28:03.000Z,97.5
2022-09-09T02:28:23.101Z,97.51
2022-09-09T02:28:43.139Z,97.53
2022-09-09T02:29:03.180Z,97.51
2022-09-09T02:29:23.253Z,97.52
2022-09-09T02:29:43.303Z,97.52
2022-09-09T02:30:03.386Z,97.5
2022-09-09T02:30:23.487Z,97.49
2022-09-09T02:30:43.573Z,97.54
2022-09-09T02:31:03.626Z,97.56
2022-09-09T02:31:23.611Z,97.53
2022-09-09T02:31:43.673Z,97.49
2022-09-09T02:32:03.748Z,97.49
2022-09-09T02:32:23.830Z,97.49
2022-09-09T02:32:43.899Z,97.52
2022-09-09T02:33:03.964Z,97.47
2022-09-09T02:33:24.019Z,97.46
2022-09-09T02:33:44.131Z,97.48
2022-09-09T02:34:04.196Z,97.49
2022-09-09T02:34:24.223Z,97.49
2022-09-09T02:34:44.328Z,97.5
2022-09-09T02:35:04.336Z,97.46
2022-09-09T02:35:24.426Z,97.42
2022-09-09T02:35:44.485Z,97.45
2022-09-09T02:36:04.602Z,97.43
2022-09-09T02:36:24.668Z,97.41
2022-09-09T02:36:44.732Z,97.42
2022-09-09T02:37:04.804Z,97.4
2022-09-09T02:37:24.835Z,97.37
2022-09-09T02:37:44.892Z,97.37
2022-09-09T02:38:04.980Z,97.33
2022-09-09T02:38:25.022Z,97.39
2022-09-09T02:38:45.079Z,97.36
2022-09-09T02:39:05.109Z,97.37
2022-09-09T02:39:25.229Z,97.35
2022-09-09T02:39:45.364Z,97.35
2022-09-09T02:40:05.423Z,97.37
2022-09-09T02:40:25.405Z,97.38
2022-09-09T02:40:45.468Z,97.39
2022-09-09T02:41:05.549Z,97.42
2022-09-09T02:41:25.637Z,97.43
2022-09-09T02:41:45.706Z,97.43
2022-09-09T02:42:05.744Z,97.4
2022-09-09T02:42:25.811Z,97.44
2022-09-09T02:42:45.869Z,97.43
2022-09-09T02:43:05.935Z,97.4
2022-09-09T02:43:25.973Z,97.48
2022-09-09T02:43:46.031Z,97.47
2022-09-09T02:44:06.132Z,97.51
2022-09-09T02:44:26.206Z,97.45
2022-09-09T02:44:46.247Z,97.46
2022-09-09T02:45:06.317Z,97.47
2022-09-09T02:45:26.389Z,97.46
2022-09-09T02:45:46.460Z,97.49
2022-09-09T02:46:06.670Z,97.5
2022-09-09T02:46:26.541Z,97.49
2022-09-09T02:46:46.632Z,97.45
2022-09-09T02:47:06.712Z,97.42
2022-09-09T02:47:26.766Z,97.42
2022-09-09T02:47:46.851Z,97.43
2022-09-09T02:48:06.933Z,97.38
2022-09-09T02:48:26.994Z,97.41
2022-09-09T02:48:47.083Z,97.46
2022-09-09T02:49:07.170Z,97.49
2022-09-09T02:49:27.241Z,97.44
2022-09-09T02:49:47.305Z,97.43
2022-09-09T02:50:07.371Z,97.44
2022-09-09T02:50:27.433Z,97.5
2022-09-09T02:50:47.495Z,97.52
2022-09-09T02:51:07.573Z,97.49
2022-09-09T02:51:27.601Z,97.48
2022-09-09T02:51:47.704Z,97.51
2022-09-09T02:52:07.789Z,97.52
2022-09-09T02:52:27.864Z,97.54
2022-09-09T02:52:47.932Z,97.5
2022-09-09T02:53:07.981Z,97.5
2022-09-09T02:53:28.060Z,97.47
2022-09-09T02:53:48.132Z,97.42
2022-09-09T02:54:08.184Z,97.38
2022-09-09T02:54:28.251Z,97.45
2022-09-09T02:54:48.352Z,97.5
2022-09-09T02:55:08.407Z,97.5
2022-09-09T02:55:28.447Z,97.42
2022-09-09T02:55:48.499Z,97.37
2022-09-09T02:56:08.567Z,97.28
2022-09-09T02:56:28.645Z,97.26
2022-09-09T02:56:48.685Z,97.16
2022-09-09T02:57:08.755Z,97.16
2022-09-09T02:57:28.817Z,97.11
2022-09-09T02:57:48.861Z,97.13
2022-09-09T02:58:08.926Z,97.12
2022-09-09T02:58:29.050Z,97.07
2022-09-09T02:58:49.084Z,97.16
2022-09-09T02:59:09.120Z,97.2
2022-09-09T02:59:29.226Z,97.21
2022-09-09T02:59:49.296Z,97.27
2022-09-09T03:00:09.354Z,97.26
2022-09-09T03:00:29.423Z,97.29
2022-09-09T03:00:49.540Z,97.28
2022-09-09T03:01:09.574Z,97.28
2022-09-09T03:01:29.729Z,97.32
2022-09-09T03:01:49.679Z,97.2
2022-09-09T03:02:09.820Z,97.23
2022-09-09T03:02:29.935Z,97.27
2022-09-09T03:02:49.949Z,97.26
2022-09-09T03:03:09.974Z,97.28
2022-09-09T03:03:30.069Z,97.3
2022-09-09T03:03:50.131Z,97.32
2022-09-09T03:04:10.194Z,97.36
2022-09-09T03:04:30.277Z,97.33
2022-09-09T03:04:50.318Z,97.35
2022-09-09T03:05:10.388Z,97.36
2022-09-09T03:05:30.457Z,97.32
2022-09-09T03:05:50.527Z,97.34
2022-09-09T03:06:10.594Z,97.31
2022-09-09T03:06:30.649Z,97.35
2022-09-09T03:06:50.692Z,97.37
2022-09-09T03:07:10.738Z,97.35
2022-09-09T03:07:30.813Z,97.43
2022-09-09T03:07:50.888Z,97.44
2022-09-09T03:08:10.960Z,97.45
2022-09-09T03:08:31.043Z,97.45
2022-09-09T03:08:51.112Z,97.47
2022-09-09T03:09:11.167Z,97.43
2022-09-09T03:09:31.226Z,97.52
2022-09-09T03:09:51.286Z,97.54
2022-09-09T03:10:11.334Z,97.55
2022-09-09T03:10:31.452Z,97.58
2022-09-09T03:10:51.471Z,97.56
2022-09-09T03:11:11.560Z,97.54
2022-09-09T03:11:31.598Z,97.59
2022-09-09T03:11:51.652Z,97.58
2022-09-09T03:12:11.703Z,97.56
2022-09-09T03:12:31.765Z,97.6
2022-09-09T03:12:51.802Z,97.63
2022-09-09T03:13:11.883Z,97.62
2022-09-09T03:13:31.943Z,97.6
2022-09-09T03:13:51.997Z,97.56
2022-09-09T03:14:12.048Z,97.59
2022-09-09T03:14:32.113Z,97.54
2022-09-09T03:14:52.189Z,97.46
2022-09-09T03:15:12.247Z,97.46
2022-09-09T03:15:32.350Z,97.47
2022-09-09T03:15:52.382Z,97.42
2022-09-09T03:16:12.495Z,97.37
2022-09-09T03:16:32.612Z,97.39
2022-09-09T03:16:52.731Z,97.4
2022-09-09T03:17:12.664Z,97.4
2022-09-09T03:17:32.728Z,97.37
2022-09-09T03:17:52.802Z,97.32
2022-09-09T03:18:12.860Z,97.29
2022-09-09T03:18:32.924Z,97.25
2022-09-09T03:18:52.986Z,97.25
2022-09-09T03:19:13.049Z,97.23
2022-09-09T03:19:33.113Z,97.3
2022-09-09T03:19:53.175Z,97.27
2022-09-09T03:20:13.251Z,97.24
2022-09-09T03:20:33.301Z,97.28
2022-09-09T03:20:53.356Z,97.27
2022-09-09T03:21:13.408Z,97.24
2022-09-09T03:21:33.472Z,97.24
2022-09-09T03:21:53.549Z,97.26
2022-09-09T03:22:13.614Z,97.25
2022-09-09T03:22:33.668Z,97.29
2022-09-09T03:22:53.709Z,97.23
2022-09-09T03:23:15.941Z,97.25
2022-09-09T03:23:33.824Z,97.22
2022-09-09T03:23:53.898Z,97.2
2022-09-09T03:24:13.964Z,97.18
2022-09-09T03:24:34.058Z,97.15
2022-09-09T03:24:54.122Z,97.15
2022-09-09T03:25:14.177Z,97.18
2022-09-09T03:25:34.236Z,97.17
2022-09-09T03:25:54.284Z,97.15
2022-09-09T03:26:14.365Z,97.18
2022-09-09T03:26:34.436Z,97.16
2022-09-09T03:26:54.515Z,97.07
2022-09-09T03:27:14.593Z,97.09
2022-09-09T03:27:34.602Z,97.03
2022-09-09T03:27:54.688Z,97.06
2022-09-09T03:28:14.754Z,97
2022-09-09T03:28:34.938Z,96.99
2022-09-09T03:28:54.911Z,96.98
2022-09-09T03:29:14.972Z,97.02
2022-09-09T03:29:35.037Z,97.07
2022-09-09T03:29:55.122Z,96.96
2022-09-09T03:30:15.182Z,96.92
2022-09-09T03:30:35.326Z,96.85
2022-09-09T03:30:55.346Z,96.95
2022-09-09T03:31:15.463Z,96.98
2022-09-09T03:31:35.554Z,96.89
2022-09-09T03:31:55.620Z,96.86
2022-09-09T03:32:15.606Z,96.86
2022-09-09T03:32:35.682Z,96.88
2022-09-09T03:32:55.777Z,96.87
2022-09-09T03:33:15.849Z,96.91
2022-09-09T03:33:35.920Z,96.9
2022-09-09T03:33:55.940Z,96.88
2022-09-09T03:34:16.005Z,96.87
2022-09-09T03:34:36.042Z,96.89
2022-09-09T03:34:56.113Z,96.86
2022-09-09T03:35:16.165Z,96.87
2022-09-09T03:35:36.230Z,96.82
2022-09-09T03:35:56.301Z,96.71
2022-09-09T03:36:16.327Z,96.64
2022-09-09T03:36:36.396Z,96.64
2022-09-09T03:36:56.443Z,96.66
2022-09-09T03:37:16.504Z,96.6
2022-09-09T03:37:36.600Z,96.61
2022-09-09T03:37:56.668Z,96.6
2022-09-09T03:38:16.716Z,96.63
2022-09-09T03:38:36.905Z,96.6
2022-09-09T03:38:56.869Z,96.68
2022-09-09T03:39:16.919Z,96.74
2022-09-09T03:39:37.071Z,96.78
2022-09-09T03:39:57.151Z,96.8
2022-09-09T03:40:17.227Z,96.79
2022-09-09T03:40:37.205Z,96.84
2022-09-09T03:40:57.260Z,96.91
2022-09-09T03:41:17.287Z,96.83
2022-09-09T03:41:37.357Z,96.86
2022-09-09T03:41:57.421Z,96.88
2022-09-09T03:42:17.498Z,96.85
2022-09-09T03:42:37.573Z,96.79
2022-09-09T03:42:57.627Z,96.78
2022-09-09T03:43:17.693Z,96.78
2022-09-09T03:43:37.754Z,96.78
2022-09-09T03:43:57.818Z,96.75
2022-09-09T03:44:17.907Z,96.69
2022-09-09T03:44:37.978Z,96.69
2022-09-09T03:44:58.060Z,96.7
2022-09-09T03:45:18.098Z,96.67
2022-09-09T03:45:38.226Z,96.71
2022-09-09T03:45:58.420Z,96.58
2022-09-09T03:46:18.357Z,96.56
2022-09-09T03:46:38.333Z,96.5
2022-09-09T03:46:58.416Z,96.51
2022-09-09T03:47:18.475Z,96.51
2022-09-09T03:47:38.534Z,96.61
2022-09-09T03:47:58.611Z,96.67
2022-09-09T03:48:18.670Z,96.66
2022-09-09T03:48:38.725Z,96.67
2022-09-09T03:48:58.790Z,96.73
2022-09-09T03:49:18.878Z,96.81
2022-09-09T03:49:38.948Z,96.83
2022-09-09T03:49:59.002Z,96.86
2022-09-09T03:50:19.070Z,96.86
2022-09-09T03:50:39.126Z,96.89
2022-09-09T03:50:59.182Z,96.92
2022-09-09T03:51:19.254Z,96.93
2022-09-09T03:51:39.314Z,96.95
2022-09-09T03:51:59.362Z,96.98
2022-09-09T03:52:23.533Z,96.96
2022-09-09T03:52:39.522Z,96.97
2022-09-09T03:52:59.577Z,97.02
2022-09-09T03:53:19.654Z,97.02
2022-09-09T03:53:39.716Z,97.02
2022-09-09T03:53:59.742Z,97.04
2022-09-09T03:54:19.824Z,97.08
2022-09-09T03:54:39.911Z,97.12
2022-09-09T03:54:59.979Z,97.14
2022-09-09T03:55:20.039Z,97.19
2022-09-09T03:55:40.084Z,97.25
2022-09-09T03:56:00.147Z,97.21
2022-09-09T03:56:20.193Z,97.24
2022-09-09T03:56:40.260Z,97.25
2022-09-09T03:57:00.290Z,97.25
2022-09-09T03:57:20.350Z,97.28
2022-09-09T03:57:40.386Z,97.28
2022-09-09T03:58:00.470Z,97.27
2022-09-09T03:58:20.546Z,97.28
2022-09-09T03:58:40.588Z,97.33
2022-09-09T03:59:00.656Z,97.35
2022-09-09T03:59:20.698Z,97.38
2022-09-09T03:59:40.770Z,97.41
2022-09-09T04:00:00.833Z,97.45
2022-09-09T04:00:20.890Z,97.45
2022-09-09T04:00:41.059Z,97.54
2022-09-09T04:01:01.116Z,97.57
2022-09-09T04:01:21.147Z,97.6
2022-09-09T04:01:41.197Z,97.62
2022-09-09T04:02:01.278Z,97.62
2022-09-09T04:02:21.352Z,97.64
2022-09-09T04:02:41.410Z,97.71
2022-09-09T04:03:01.488Z,97.71
2022-09-09T04:03:24.719Z,97.74
2022-09-09T04:03:41.620Z,97.75
2022-09-09T04:04:01.675Z,97.79
2022-09-09T04:04:21.719Z,97.78
2022-09-09T04:04:41.764Z,97.82
2022-09-09T04:05:01.846Z,97.79
2022-09-09T04:05:21.903Z,97.82
2022-09-09T04:05:41.966Z,97.79
2022-09-09T04:06:02.040Z,97.85
2022-09-09T04:06:22.099Z,97.86
2022-09-09T04:06:42.171Z,97.89
2022-09-09T04:07:02.234Z,97.89
2022-09-09T04:07:22.306Z,97.91
2022-09-09T04:07:42.368Z,97.99
2022-09-09T04:08:02.469Z,97.95
2022-09-09T04:08:22.498Z,97.94
2022-09-09T04:08:42.577Z,97.98
2022-09-09T04:09:02.631Z,97.97
2022-09-09T04:09:22.700Z,98.03
2022-09-09T04:09:42.789Z,98.03
2022-09-09T04:10:02.836Z,98.05
2022-09-09T04:10:22.900Z,98.06
2022-09-09T04:10:42.947Z,98.08
2022-09-09T04:11:03.007Z,98.12
2022-09-09T04:11:23.063Z,98.14
2022-09-09T04:11:43.130Z,98.17
2022-09-09T04:12:03.218Z,98.15
2022-09-09T04:12:23.287Z,98.17
2022-09-09T04:12:46.546Z,98.19
2022-09-09T04:13:03.387Z,98.2
2022-09-09T04:13:23.454Z,98.22
2022-09-09T04:13:43.508Z,98.19
2022-09-09T04:14:03.539Z,98.2
2022-09-09T04:14:23.621Z,98.16
2022-09-09T04:14:43.671Z,98.17
2022-09-09T04:15:03.734Z,98.16
2022-09-09T04:15:23.827Z,98.08
2022-09-09T04:15:43.877Z,98.1
2022-09-09T04:16:04.002Z,98.1
2022-09-09T04:16:24.066Z,98.09
2022-09-09T04:16:44.208Z,98.07
2022-09-09T04:17:04.131Z,98.05
2022-09-09T04:17:24.195Z,98.04
2022-09-09T04:17:44.257Z,98.03
2022-09-09T04:18:04.306Z,98.06
2022-09-09T04:18:24.349Z,98.02
2022-09-09T04:18:44.406Z,98.04
2022-09-09T04:19:04.455Z,98.06
2022-09-09T04:19:24.511Z,98.09
2022-09-09T04:19:44.564Z,98.07
2022-09-09T04:20:04.605Z,98.12
2022-09-09T04:20:24.655Z,98.17
2022-09-09T04:20:44.723Z,98.19
2022-09-09T04:21:04.755Z,98.2
2022-09-09T04:21:24.822Z,98.23
2022-09-09T04:21:44.857Z,98.25
2022-09-09T04:22:04.906Z,98.24
2022-09-09T04:22:24.977Z,98.26
2022-09-09T04:22:45.075Z,98.27
2022-09-09T04:23:05.121Z,98.28